sensor_id;sensor_type;location;lat;lon;timestamp;P1;durP1;ratioP1;P2;durP2;ratioP2
19776;SDS011;10047;42.490;26.012;2023-02-26T00:01:00;39.72;;;22.50;;
19776;SDS011;10047;42.490;26.012;2023-02-26T00:03:25;39.97;;;24.70;;
19776;SDS011;10047;42.490;26.012;2023-02-26T00:05:51;37.05;;;22.17;;
19776;SDS011;10047;42.490;26.012;2023-02-26T00:08:16;42.67;;;23.77;;
19776;SDS011;10047;42.490;26.012;2023-02-26T00:10:42;37.95;;;22.92;;
19776;SDS011;10047;42.490;26.012;2023-02-26T00:13:09;38.25;;;22.80;;
19776;SDS011;10047;42.490;26.012;2023-02-26T00:15:35;37.58;;;21.92;;
19776;SDS011;10047;42.490;26.012;2023-02-26T00:18:04;38.00;;;21.27;;
19776;SDS011;10047;42.490;26.012;2023-02-26T00:20:32;37.40;;;22.52;;
19776;SDS011;10047;42.490;26.012;2023-02-26T00:22:58;44.55;;;26.88;;
19776;SDS011;10047;42.490;26.012;2023-02-26T00:25:24;46.45;;;28.33;;
19776;SDS011;10047;42.490;26.012;2023-02-26T00:27:49;52.53;;;29.38;;
19776;SDS011;10047;42.490;26.012;2023-02-26T00:30:15;51.65;;;30.05;;
19776;SDS011;10047;42.490;26.012;2023-02-26T00:32:41;51.40;;;30.27;;
19776;SDS011;10047;42.490;26.012;2023-02-26T00:35:08;49.67;;;28.02;;
19776;SDS011;10047;42.490;26.012;2023-02-26T00:43:08;41.42;;;23.63;;
19776;SDS011;10047;42.490;26.012;2023-02-26T00:45:38;39.58;;;23.02;;
19776;SDS011;10047;42.490;26.012;2023-02-26T00:56:25;38.80;;;22.17;;
19776;SDS011;10047;42.490;26.012;2023-02-26T00:58:51;42.80;;;22.17;;
19776;SDS011;10047;42.490;26.012;2023-02-26T01:01:16;36.47;;;19.50;;
19776;SDS011;10047;42.490;26.012;2023-02-26T01:03:42;34.25;;;19.00;;
19776;SDS011;10047;42.490;26.012;2023-02-26T01:06:14;39.55;;;18.85;;
19776;SDS011;10047;42.490;26.012;2023-02-26T01:11:18;37.38;;;18.25;;
19776;SDS011;10047;42.490;26.012;2023-02-26T01:13:44;30.65;;;17.63;;
19776;SDS011;10047;42.490;26.012;2023-02-26T01:16:11;29.10;;;17.77;;
19776;SDS011;10047;42.490;26.012;2023-02-26T01:18:45;45.33;;;21.35;;
19776;SDS011;10047;42.490;26.012;2023-02-26T01:21:22;36.17;;;21.90;;
19776;SDS011;10047;42.490;26.012;2023-02-26T01:23:58;33.00;;;21.23;;
19776;SDS011;10047;42.490;26.012;2023-02-26T01:26:29;34.55;;;19.63;;
19776;SDS011;10047;42.490;26.012;2023-02-26T01:28:55;31.52;;;19.40;;
19776;SDS011;10047;42.490;26.012;2023-02-26T01:31:35;43.88;;;19.45;;
19776;SDS011;10047;42.490;26.012;2023-02-26T01:36:53;37.13;;;19.58;;
19776;SDS011;10047;42.490;26.012;2023-02-26T01:39:28;35.67;;;19.10;;
19776;SDS011;10047;42.490;26.012;2023-02-26T01:42:04;31.92;;;19.58;;
19776;SDS011;10047;42.490;26.012;2023-02-26T01:47:42;34.92;;;15.68;;
19776;SDS011;10047;42.490;26.012;2023-02-26T01:50:12;38.60;;;16.73;;
19776;SDS011;10047;42.490;26.012;2023-02-26T01:55:24;34.03;;;16.52;;
19776;SDS011;10047;42.490;26.012;2023-02-26T01:57:52;29.65;;;14.63;;
19776;SDS011;10047;42.490;26.012;2023-02-26T02:00:21;34.15;;;15.55;;
19776;SDS011;10047;42.490;26.012;2023-02-26T02:02:48;32.08;;;15.13;;
19776;SDS011;10047;42.490;26.012;2023-02-26T02:05:17;34.20;;;15.63;;
19776;SDS011;10047;42.490;26.012;2023-02-26T02:07:49;33.13;;;15.40;;
19776;SDS011;10047;42.490;26.012;2023-02-26T02:10:14;35.03;;;16.17;;
19776;SDS011;10047;42.490;26.012;2023-02-26T02:12:42;36.45;;;17.00;;
19776;SDS011;10047;42.490;26.012;2023-02-26T02:34:19;30.88;;;16.98;;
19776;SDS011;10047;42.490;26.012;2023-02-26T02:39:42;35.08;;;16.08;;
19776;SDS011;10047;42.490;26.012;2023-02-26T02:44:39;32.30;;;15.32;;
19776;SDS011;10047;42.490;26.012;2023-02-26T02:47:10;34.90;;;16.27;;
19776;SDS011;10047;42.490;26.012;2023-02-26T02:49:44;34.03;;;15.50;;
19776;SDS011;10047;42.490;26.012;2023-02-26T02:52:20;31.85;;;14.45;;
19776;SDS011;10047;42.490;26.012;2023-02-26T02:55:02;34.33;;;15.32;;
19776;SDS011;10047;42.490;26.012;2023-02-26T02:57:35;41.75;;;13.30;;
19776;SDS011;10047;42.490;26.012;2023-02-26T03:00:06;37.13;;;14.68;;
19776;SDS011;10047;42.490;26.012;2023-02-26T03:05:06;39.55;;;16.65;;
19776;SDS011;10047;42.490;26.012;2023-02-26T03:07:32;38.35;;;17.27;;
19776;SDS011;10047;42.490;26.012;2023-02-26T03:10:02;32.22;;;17.20;;
19776;SDS011;10047;42.490;26.012;2023-02-26T03:12:30;33.97;;;16.05;;
19776;SDS011;10047;42.490;26.012;2023-02-26T03:14:56;36.80;;;16.00;;
19776;SDS011;10047;42.490;26.012;2023-02-26T03:20:15;37.42;;;15.32;;
19776;SDS011;10047;42.490;26.012;2023-02-26T03:22:50;29.00;;;14.45;;
19776;SDS011;10047;42.490;26.012;2023-02-26T03:30:23;31.77;;;14.38;;
19776;SDS011;10047;42.490;26.012;2023-02-26T03:39:03;29.20;;;14.00;;
19776;SDS011;10047;42.490;26.012;2023-02-26T03:41:22;31.63;;;13.18;;
19776;SDS011;10047;42.490;26.012;2023-02-26T03:43:54;30.60;;;13.75;;
19776;SDS011;10047;42.490;26.012;2023-02-26T03:46:26;31.25;;;13.70;;
19776;SDS011;10047;42.490;26.012;2023-02-26T03:48:55;30.80;;;13.63;;
19776;SDS011;10047;42.490;26.012;2023-02-26T03:51:23;28.88;;;13.82;;
19776;SDS011;10047;42.490;26.012;2023-02-26T03:53:57;37.55;;;15.13;;
19776;SDS011;10047;42.490;26.012;2023-02-26T03:56:38;29.33;;;14.93;;
19776;SDS011;10047;42.490;26.012;2023-02-26T03:59:07;26.15;;;14.43;;
19776;SDS011;10047;42.490;26.012;2023-02-26T04:01:35;32.25;;;12.90;;
19776;SDS011;10047;42.490;26.012;2023-02-26T04:06:54;33.72;;;12.98;;
19776;SDS011;10047;42.490;26.012;2023-02-26T04:09:20;28.42;;;13.80;;
19776;SDS011;10047;42.490;26.012;2023-02-26T04:11:47;28.88;;;13.73;;
19776;SDS011;10047;42.490;26.012;2023-02-26T04:14:15;32.30;;;13.35;;
19776;SDS011;10047;42.490;26.012;2023-02-26T04:16:41;29.38;;;13.52;;
19776;SDS011;10047;42.490;26.012;2023-02-26T04:19:08;33.88;;;14.00;;
19776;SDS011;10047;42.490;26.012;2023-02-26T04:21:33;30.90;;;13.18;;
19776;SDS011;10047;42.490;26.012;2023-02-26T04:23:58;27.05;;;12.80;;
19776;SDS011;10047;42.490;26.012;2023-02-26T04:26:24;32.17;;;13.57;;
19776;SDS011;10047;42.490;26.012;2023-02-26T04:28:49;28.00;;;12.75;;
19776;SDS011;10047;42.490;26.012;2023-02-26T04:31:15;27.30;;;12.20;;
19776;SDS011;10047;42.490;26.012;2023-02-26T04:33:40;36.15;;;13.40;;
19776;SDS011;10047;42.490;26.012;2023-02-26T04:36:05;27.63;;;12.60;;
19776;SDS011;10047;42.490;26.012;2023-02-26T04:38:31;31.55;;;13.65;;
19776;SDS011;10047;42.490;26.012;2023-02-26T04:40:57;28.33;;;10.30;;
19776;SDS011;10047;42.490;26.012;2023-02-26T04:43:22;24.08;;;9.73;;
19776;SDS011;10047;42.490;26.012;2023-02-26T04:45:48;26.27;;;9.02;;
19776;SDS011;10047;42.490;26.012;2023-02-26T04:48:14;21.73;;;9.40;;
19776;SDS011;10047;42.490;26.012;2023-02-26T04:50:40;23.63;;;8.95;;
19776;SDS011;10047;42.490;26.012;2023-02-26T04:53:06;26.73;;;9.60;;
19776;SDS011;10047;42.490;26.012;2023-02-26T04:55:32;23.10;;;9.60;;
19776;SDS011;10047;42.490;26.012;2023-02-26T04:57:59;24.08;;;10.52;;
19776;SDS011;10047;42.490;26.012;2023-02-26T05:00:24;30.45;;;11.18;;
19776;SDS011;10047;42.490;26.012;2023-02-26T05:02:50;28.77;;;9.25;;
19776;SDS011;10047;42.490;26.012;2023-02-26T05:05:16;26.13;;;9.00;;
19776;SDS011;10047;42.490;26.012;2023-02-26T05:07:41;30.85;;;9.77;;
19776;SDS011;10047;42.490;26.012;2023-02-26T05:10:07;22.20;;;7.53;;
19776;SDS011;10047;42.490;26.012;2023-02-26T05:12:33;24.30;;;7.95;;
19776;SDS011;10047;42.490;26.012;2023-02-26T05:14:58;22.58;;;8.27;;
19776;SDS011;10047;42.490;26.012;2023-02-26T05:17:24;25.50;;;8.43;;
19776;SDS011;10047;42.490;26.012;2023-02-26T05:19:49;21.70;;;8.25;;
19776;SDS011;10047;42.490;26.012;2023-02-26T05:22:15;24.13;;;8.85;;
19776;SDS011;10047;42.490;26.012;2023-02-26T05:24:41;21.63;;;8.63;;
19776;SDS011;10047;42.490;26.012;2023-02-26T05:27:07;22.83;;;8.43;;
19776;SDS011;10047;42.490;26.012;2023-02-26T05:29:33;19.52;;;7.32;;
19776;SDS011;10047;42.490;26.012;2023-02-26T05:31:59;19.80;;;7.10;;
19776;SDS011;10047;42.490;26.012;2023-02-26T05:34:24;20.27;;;6.82;;
19776;SDS011;10047;42.490;26.012;2023-02-26T05:36:50;19.75;;;7.45;;
19776;SDS011;10047;42.490;26.012;2023-02-26T05:39:15;19.30;;;7.10;;
19776;SDS011;10047;42.490;26.012;2023-02-26T05:41:41;18.55;;;7.72;;
19776;SDS011;10047;42.490;26.012;2023-02-26T05:44:06;23.73;;;7.50;;
19776;SDS011;10047;42.490;26.012;2023-02-26T05:46:34;18.13;;;7.85;;
19776;SDS011;10047;42.490;26.012;2023-02-26T05:49:00;21.08;;;8.60;;
19776;SDS011;10047;42.490;26.012;2023-02-26T05:51:25;20.60;;;7.57;;
19776;SDS011;10047;42.490;26.012;2023-02-26T05:53:50;21.52;;;8.63;;
19776;SDS011;10047;42.490;26.012;2023-02-26T05:56:16;20.95;;;7.57;;
19776;SDS011;10047;42.490;26.012;2023-02-26T05:58:41;24.85;;;7.72;;
19776;SDS011;10047;42.490;26.012;2023-02-26T06:01:07;20.15;;;7.30;;
19776;SDS011;10047;42.490;26.012;2023-02-26T06:03:32;20.58;;;7.13;;
19776;SDS011;10047;42.490;26.012;2023-02-26T06:05:57;19.40;;;7.85;;
19776;SDS011;10047;42.490;26.012;2023-02-26T06:08:23;25.45;;;10.25;;
19776;SDS011;10047;42.490;26.012;2023-02-26T06:10:49;21.25;;;8.80;;
19776;SDS011;10047;42.490;26.012;2023-02-26T06:13:15;22.33;;;8.05;;
19776;SDS011;10047;42.490;26.012;2023-02-26T06:15:41;23.58;;;8.32;;
19776;SDS011;10047;42.490;26.012;2023-02-26T06:18:06;26.08;;;9.57;;
19776;SDS011;10047;42.490;26.012;2023-02-26T06:20:32;22.33;;;8.50;;
19776;SDS011;10047;42.490;26.012;2023-02-26T06:22:58;17.52;;;7.47;;
19776;SDS011;10047;42.490;26.012;2023-02-26T06:25:24;24.42;;;8.68;;
19776;SDS011;10047;42.490;26.012;2023-02-26T06:27:49;21.80;;;7.82;;
19776;SDS011;10047;42.490;26.012;2023-02-26T06:30:14;21.45;;;8.30;;
19776;SDS011;10047;42.490;26.012;2023-02-26T06:32:42;27.85;;;8.32;;
19776;SDS011;10047;42.490;26.012;2023-02-26T06:35:08;17.80;;;7.78;;
19776;SDS011;10047;42.490;26.012;2023-02-26T06:37:34;20.33;;;7.50;;
19776;SDS011;10047;42.490;26.012;2023-02-26T06:39:59;26.08;;;9.02;;
19776;SDS011;10047;42.490;26.012;2023-02-26T06:42:25;20.45;;;8.43;;
19776;SDS011;10047;42.490;26.012;2023-02-26T06:44:50;25.42;;;8.68;;
19776;SDS011;10047;42.490;26.012;2023-02-26T06:47:16;27.17;;;8.55;;
19776;SDS011;10047;42.490;26.012;2023-02-26T06:49:41;29.63;;;8.85;;
19776;SDS011;10047;42.490;26.012;2023-02-26T06:52:06;24.52;;;8.05;;
19776;SDS011;10047;42.490;26.012;2023-02-26T06:54:32;23.25;;;7.20;;
19776;SDS011;10047;42.490;26.012;2023-02-26T06:56:57;34.28;;;8.35;;
19776;SDS011;10047;42.490;26.012;2023-02-26T06:59:24;28.80;;;9.02;;
19776;SDS011;10047;42.490;26.012;2023-02-26T07:01:50;19.65;;;8.23;;
19776;SDS011;10047;42.490;26.012;2023-02-26T07:04:15;25.33;;;7.97;;
19776;SDS011;10047;42.490;26.012;2023-02-26T07:06:41;22.77;;;8.38;;
19776;SDS011;10047;42.490;26.012;2023-02-26T07:09:06;25.05;;;8.85;;
19776;SDS011;10047;42.490;26.012;2023-02-26T07:11:31;20.98;;;8.52;;
19776;SDS011;10047;42.490;26.012;2023-02-26T07:13:57;32.70;;;8.30;;
19776;SDS011;10047;42.490;26.012;2023-02-26T07:16:22;27.15;;;8.35;;
19776;SDS011;10047;42.490;26.012;2023-02-26T07:18:47;28.88;;;9.95;;
19776;SDS011;10047;42.490;26.012;2023-02-26T07:21:13;32.05;;;11.13;;
19776;SDS011;10047;42.490;26.012;2023-02-26T07:23:39;30.20;;;9.85;;
19776;SDS011;10047;42.490;26.012;2023-02-26T07:26:04;23.52;;;9.32;;
19776;SDS011;10047;42.490;26.012;2023-02-26T07:28:29;28.77;;;10.98;;
19776;SDS011;10047;42.490;26.012;2023-02-26T07:30:55;29.27;;;12.05;;
19776;SDS011;10047;42.490;26.012;2023-02-26T07:33:21;25.73;;;11.05;;
19776;SDS011;10047;42.490;26.012;2023-02-26T07:35:47;28.13;;;9.70;;
19776;SDS011;10047;42.490;26.012;2023-02-26T07:38:13;28.48;;;8.25;;
19776;SDS011;10047;42.490;26.012;2023-02-26T07:40:39;29.40;;;9.20;;
19776;SDS011;10047;42.490;26.012;2023-02-26T07:43:04;26.02;;;8.45;;
19776;SDS011;10047;42.490;26.012;2023-02-26T07:45:29;23.67;;;8.82;;
19776;SDS011;10047;42.490;26.012;2023-02-26T07:47:55;26.92;;;8.38;;
19776;SDS011;10047;42.490;26.012;2023-02-26T07:50:20;28.45;;;9.63;;
19776;SDS011;10047;42.490;26.012;2023-02-26T07:52:48;29.08;;;12.27;;
19776;SDS011;10047;42.490;26.012;2023-02-26T07:55:16;26.60;;;8.57;;
19776;SDS011;10047;42.490;26.012;2023-02-26T07:57:41;27.90;;;8.73;;
19776;SDS011;10047;42.490;26.012;2023-02-26T08:00:07;25.88;;;8.13;;
19776;SDS011;10047;42.490;26.012;2023-02-26T08:02:33;23.15;;;8.07;;
19776;SDS011;10047;42.490;26.012;2023-02-26T08:04:58;23.65;;;7.22;;
19776;SDS011;10047;42.490;26.012;2023-02-26T08:07:23;26.83;;;7.97;;
19776;SDS011;10047;42.490;26.012;2023-02-26T08:09:49;22.40;;;8.38;;
19776;SDS011;10047;42.490;26.012;2023-02-26T08:12:14;21.85;;;8.32;;
19776;SDS011;10047;42.490;26.012;2023-02-26T08:14:40;25.88;;;9.25;;
19776;SDS011;10047;42.490;26.012;2023-02-26T08:17:06;21.50;;;7.97;;
19776;SDS011;10047;42.490;26.012;2023-02-26T08:19:32;25.90;;;7.40;;
19776;SDS011;10047;42.490;26.012;2023-02-26T08:21:58;20.50;;;7.63;;
19776;SDS011;10047;42.490;26.012;2023-02-26T08:24:23;23.85;;;7.38;;
19776;SDS011;10047;42.490;26.012;2023-02-26T08:26:48;21.40;;;7.30;;
19776;SDS011;10047;42.490;26.012;2023-02-26T08:29:14;24.63;;;7.78;;
19776;SDS011;10047;42.490;26.012;2023-02-26T08:31:40;21.67;;;7.53;;
19776;SDS011;10047;42.490;26.012;2023-02-26T08:34:05;20.67;;;6.72;;
19776;SDS011;10047;42.490;26.012;2023-02-26T08:36:31;21.90;;;6.82;;
19776;SDS011;10047;42.490;26.012;2023-02-26T08:38:57;25.15;;;7.03;;
19776;SDS011;10047;42.490;26.012;2023-02-26T08:41:22;22.25;;;6.55;;
19776;SDS011;10047;42.490;26.012;2023-02-26T08:43:48;24.45;;;6.93;;
19776;SDS011;10047;42.490;26.012;2023-02-26T08:46:14;20.48;;;6.13;;
19776;SDS011;10047;42.490;26.012;2023-02-26T08:48:39;29.58;;;7.75;;
19776;SDS011;10047;42.490;26.012;2023-02-26T08:51:05;34.67;;;7.55;;
19776;SDS011;10047;42.490;26.012;2023-02-26T08:53:30;23.42;;;6.32;;
19776;SDS011;10047;42.490;26.012;2023-02-26T08:55:56;23.52;;;6.00;;
19776;SDS011;10047;42.490;26.012;2023-02-26T08:58:21;28.23;;;6.90;;
19776;SDS011;10047;42.490;26.012;2023-02-26T09:00:47;19.92;;;6.07;;
19776;SDS011;10047;42.490;26.012;2023-02-26T09:03:12;20.73;;;6.47;;
19776;SDS011;10047;42.490;26.012;2023-02-26T09:05:38;26.48;;;6.85;;
19776;SDS011;10047;42.490;26.012;2023-02-26T09:08:04;22.08;;;6.78;;
19776;SDS011;10047;42.490;26.012;2023-02-26T09:10:31;20.13;;;5.97;;
19776;SDS011;10047;42.490;26.012;2023-02-26T09:12:56;20.63;;;6.75;;
19776;SDS011;10047;42.490;26.012;2023-02-26T09:15:22;20.95;;;6.53;;
19776;SDS011;10047;42.490;26.012;2023-02-26T09:17:47;21.85;;;5.90;;
19776;SDS011;10047;42.490;26.012;2023-02-26T09:20:13;16.10;;;5.70;;
19776;SDS011;10047;42.490;26.012;2023-02-26T09:22:39;28.73;;;8.52;;
19776;SDS011;10047;42.490;26.012;2023-02-26T09:25:05;21.10;;;8.82;;
19776;SDS011;10047;42.490;26.012;2023-02-26T09:27:32;26.30;;;8.00;;
19776;SDS011;10047;42.490;26.012;2023-02-26T09:29:59;23.42;;;8.73;;
19776;SDS011;10047;42.490;26.012;2023-02-26T09:32:25;32.30;;;12.25;;
19776;SDS011;10047;42.490;26.012;2023-02-26T09:34:51;28.30;;;12.27;;
19776;SDS011;10047;42.490;26.012;2023-02-26T09:37:17;38.75;;;12.77;;
19776;SDS011;10047;42.490;26.012;2023-02-26T09:39:43;18.33;;;6.93;;
19776;SDS011;10047;42.490;26.012;2023-02-26T09:44:35;22.38;;;8.50;;
19776;SDS011;10047;42.490;26.012;2023-02-26T09:47:04;25.27;;;8.60;;
19776;SDS011;10047;42.490;26.012;2023-02-26T09:55:34;26.45;;;7.70;;
19776;SDS011;10047;42.490;26.012;2023-02-26T09:58:01;17.02;;;6.00;;
19776;SDS011;10047;42.490;26.012;2023-02-26T10:00:36;19.23;;;6.45;;
19776;SDS011;10047;42.490;26.012;2023-02-26T10:12:13;35.70;;;6.18;;
19776;SDS011;10047;42.490;26.012;2023-02-26T10:20:14;24.95;;;7.50;;
19776;SDS011;10047;42.490;26.012;2023-02-26T10:22:52;24.40;;;7.38;;
19776;SDS011;10047;42.490;26.012;2023-02-26T10:25:51;21.58;;;5.80;;
19776;SDS011;10047;42.490;26.012;2023-02-26T10:31:17;25.27;;;6.43;;
19776;SDS011;10047;42.490;26.012;2023-02-26T10:36:29;19.70;;;7.25;;
19776;SDS011;10047;42.490;26.012;2023-02-26T10:42:21;18.88;;;6.13;;
19776;SDS011;10047;42.490;26.012;2023-02-26T10:45:00;16.08;;;5.70;;
19776;SDS011;10047;42.490;26.012;2023-02-26T10:47:34;25.25;;;8.95;;
19776;SDS011;10047;42.490;26.012;2023-02-26T10:50:11;17.00;;;6.63;;
19776;SDS011;10047;42.490;26.012;2023-02-26T10:52:39;31.33;;;9.15;;
19776;SDS011;10047;42.490;26.012;2023-02-26T10:58:03;39.60;;;6.88;;
19776;SDS011;10047;42.490;26.012;2023-02-26T11:00:30;20.17;;;6.72;;
19776;SDS011;10047;42.490;26.012;2023-02-26T11:02:55;22.27;;;5.45;;
19776;SDS011;10047;42.490;26.012;2023-02-26T11:05:23;19.77;;;5.85;;
19776;SDS011;10047;42.490;26.012;2023-02-26T11:07:52;25.50;;;5.57;;
19776;SDS011;10047;42.490;26.012;2023-02-26T11:10:22;24.15;;;6.05;;
19776;SDS011;10047;42.490;26.012;2023-02-26T11:12:51;23.00;;;6.07;;
19776;SDS011;10047;42.490;26.012;2023-02-26T11:15:21;24.45;;;5.80;;
19776;SDS011;10047;42.490;26.012;2023-02-26T11:17:52;26.67;;;6.10;;
19776;SDS011;10047;42.490;26.012;2023-02-26T11:22:54;34.10;;;6.28;;
19776;SDS011;10047;42.490;26.012;2023-02-26T11:25:24;27.92;;;6.32;;
19776;SDS011;10047;42.490;26.012;2023-02-26T11:27:55;18.92;;;6.30;;
19776;SDS011;10047;42.490;26.012;2023-02-26T11:30:24;25.75;;;5.78;;
19776;SDS011;10047;42.490;26.012;2023-02-26T11:32:52;25.55;;;5.65;;
19776;SDS011;10047;42.490;26.012;2023-02-26T11:35:24;23.38;;;5.00;;
19776;SDS011;10047;42.490;26.012;2023-02-26T11:38:00;21.08;;;5.88;;
19776;SDS011;10047;42.490;26.012;2023-02-26T11:40:37;25.38;;;5.65;;
19776;SDS011;10047;42.490;26.012;2023-02-26T11:43:05;24.52;;;5.28;;
19776;SDS011;10047;42.490;26.012;2023-02-26T11:45:38;29.52;;;6.47;;
19776;SDS011;10047;42.490;26.012;2023-02-26T11:48:09;16.77;;;6.05;;
19776;SDS011;10047;42.490;26.012;2023-02-26T11:50:41;19.00;;;5.35;;
19776;SDS011;10047;42.490;26.012;2023-02-26T11:55:59;19.20;;;5.40;;
19776;SDS011;10047;42.490;26.012;2023-02-26T11:58:28;24.17;;;5.97;;
19776;SDS011;10047;42.490;26.012;2023-02-26T12:01:02;29.05;;;5.57;;
19776;SDS011;10047;42.490;26.012;2023-02-26T12:03:31;17.08;;;5.60;;
19776;SDS011;10047;42.490;26.012;2023-02-26T12:05:58;23.17;;;5.45;;
19776;SDS011;10047;42.490;26.012;2023-02-26T12:08:32;25.85;;;6.57;;
19776;SDS011;10047;42.490;26.012;2023-02-26T12:38:27;24.88;;;6.63;;
19776;SDS011;10047;42.490;26.012;2023-02-26T12:41:30;23.10;;;6.28;;
19776;SDS011;10047;42.490;26.012;2023-02-26T12:55:36;19.13;;;6.38;;
19776;SDS011;10047;42.490;26.012;2023-02-26T13:11:40;26.05;;;8.77;;
19776;SDS011;10047;42.490;26.012;2023-02-26T13:14:23;31.17;;;9.20;;
19776;SDS011;10047;42.490;26.012;2023-02-26T13:17:12;26.13;;;8.68;;
19776;SDS011;10047;42.490;26.012;2023-02-26T13:19:50;27.38;;;7.70;;
19776;SDS011;10047;42.490;26.012;2023-02-26T13:22:21;24.40;;;7.07;;
19776;SDS011;10047;42.490;26.012;2023-02-26T13:25:03;29.33;;;10.38;;
19776;SDS011;10047;42.490;26.012;2023-02-26T13:27:37;22.33;;;6.88;;
19776;SDS011;10047;42.490;26.012;2023-02-26T13:33:00;23.80;;;5.65;;
19776;SDS011;10047;42.490;26.012;2023-02-26T13:35:33;22.42;;;6.20;;
19776;SDS011;10047;42.490;26.012;2023-02-26T13:38:05;22.23;;;6.15;;
19776;SDS011;10047;42.490;26.012;2023-02-26T13:51:44;26.88;;;7.50;;
19776;SDS011;10047;42.490;26.012;2023-02-26T13:59:22;29.17;;;8.38;;
19776;SDS011;10047;42.490;26.012;2023-02-26T14:01:54;28.73;;;8.45;;
19776;SDS011;10047;42.490;26.012;2023-02-26T14:04:23;30.48;;;12.85;;
19776;SDS011;10047;42.490;26.012;2023-02-26T14:14:40;21.85;;;6.50;;
19776;SDS011;10047;42.490;26.012;2023-02-26T14:25:00;17.05;;;5.35;;
19776;SDS011;10047;42.490;26.012;2023-02-26T14:27:33;17.42;;;4.93;;
19776;SDS011;10047;42.490;26.012;2023-02-26T14:30:14;22.15;;;7.05;;
19776;SDS011;10047;42.490;26.012;2023-02-26T14:35:23;20.48;;;6.60;;
19776;SDS011;10047;42.490;26.012;2023-02-26T14:38:02;25.15;;;7.40;;
19776;SDS011;10047;42.490;26.012;2023-02-26T14:40:37;22.40;;;6.68;;
19776;SDS011;10047;42.490;26.012;2023-02-26T14:43:06;17.48;;;5.05;;
19776;SDS011;10047;42.490;26.012;2023-02-26T14:45:46;20.27;;;5.85;;
19776;SDS011;10047;42.490;26.012;2023-02-26T14:48:15;17.33;;;5.85;;
19776;SDS011;10047;42.490;26.012;2023-02-26T15:18:39;22.05;;;6.68;;
19776;SDS011;10047;42.490;26.012;2023-02-26T15:21:15;25.75;;;7.22;;
19776;SDS011;10047;42.490;26.012;2023-02-26T15:23:51;18.63;;;6.05;;
19776;SDS011;10047;42.490;26.012;2023-02-26T15:26:25;22.17;;;7.20;;
19776;SDS011;10047;42.490;26.012;2023-02-26T15:28:56;21.85;;;7.40;;
19776;SDS011;10047;42.490;26.012;2023-02-26T15:31:36;24.27;;;6.75;;
19776;SDS011;10047;42.490;26.012;2023-02-26T15:34:08;23.58;;;7.78;;
19776;SDS011;10047;42.490;26.012;2023-02-26T15:36:48;25.88;;;6.78;;
19776;SDS011;10047;42.490;26.012;2023-02-26T15:39:16;21.75;;;6.68;;
19776;SDS011;10047;42.490;26.012;2023-02-26T15:41:43;22.77;;;7.30;;
19776;SDS011;10047;42.490;26.012;2023-02-26T15:44:15;18.83;;;7.35;;
19776;SDS011;10047;42.490;26.012;2023-02-26T15:46:46;20.37;;;6.53;;
19776;SDS011;10047;42.490;26.012;2023-02-26T15:49:36;24.58;;;8.88;;
19776;SDS011;10047;42.490;26.012;2023-02-26T15:52:03;18.73;;;6.78;;
19776;SDS011;10047;42.490;26.012;2023-02-26T15:55:14;23.20;;;7.45;;
19776;SDS011;10047;42.490;26.012;2023-02-26T15:57:22;26.90;;;9.45;;
19776;SDS011;10047;42.490;26.012;2023-02-26T15:59:50;26.33;;;7.90;;
19776;SDS011;10047;42.490;26.012;2023-02-26T16:02:25;24.48;;;8.43;;
19776;SDS011;10047;42.490;26.012;2023-02-26T16:04:52;20.90;;;7.65;;
19776;SDS011;10047;42.490;26.012;2023-02-26T16:07:17;24.52;;;8.73;;
19776;SDS011;10047;42.490;26.012;2023-02-26T16:09:48;19.17;;;7.00;;
19776;SDS011;10047;42.490;26.012;2023-02-26T16:12:40;19.50;;;6.97;;
19776;SDS011;10047;42.490;26.012;2023-02-26T16:15:10;22.67;;;5.93;;
19776;SDS011;10047;42.490;26.012;2023-02-26T16:17:39;21.80;;;7.20;;
19776;SDS011;10047;42.490;26.012;2023-02-26T16:20:15;27.15;;;7.72;;
19776;SDS011;10047;42.490;26.012;2023-02-26T16:22:54;22.67;;;7.78;;
19776;SDS011;10047;42.490;26.012;2023-02-26T16:25:28;26.90;;;7.63;;
19776;SDS011;10047;42.490;26.012;2023-02-26T16:28:01;21.63;;;7.60;;
19776;SDS011;10047;42.490;26.012;2023-02-26T16:30:31;22.98;;;6.65;;
19776;SDS011;10047;42.490;26.012;2023-02-26T16:33:02;22.50;;;6.30;;
19776;SDS011;10047;42.490;26.012;2023-02-26T16:35:33;21.02;;;5.80;;
19776;SDS011;10047;42.490;26.012;2023-02-26T16:38:18;23.67;;;6.07;;
19776;SDS011;10047;42.490;26.012;2023-02-26T16:40:53;26.05;;;8.00;;
19776;SDS011;10047;42.490;26.012;2023-02-26T16:45:48;24.35;;;7.70;;
19776;SDS011;10047;42.490;26.012;2023-02-26T16:48:22;25.60;;;8.63;;
19776;SDS011;10047;42.490;26.012;2023-02-26T16:51:11;31.38;;;16.27;;
19776;SDS011;10047;42.490;26.012;2023-02-26T16:53:46;39.80;;;27.85;;
19776;SDS011;10047;42.490;26.012;2023-02-26T16:56:16;22.98;;;12.32;;
19776;SDS011;10047;42.490;26.012;2023-02-26T16:58:53;55.58;;;32.17;;
19776;SDS011;10047;42.490;26.012;2023-02-26T17:01:27;35.25;;;16.33;;
19776;SDS011;10047;42.490;26.012;2023-02-26T17:04:13;26.75;;;10.30;;
19776;SDS011;10047;42.490;26.012;2023-02-26T17:06:41;86.10;;;35.78;;
19776;SDS011;10047;42.490;26.012;2023-02-26T17:09:22;80.55;;;46.20;;
19776;SDS011;10047;42.490;26.012;2023-02-26T17:12:02;25.20;;;10.50;;
19776;SDS011;10047;42.490;26.012;2023-02-26T17:14:39;27.42;;;9.60;;
19776;SDS011;10047;42.490;26.012;2023-02-26T17:17:06;23.95;;;8.52;;
19776;SDS011;10047;42.490;26.012;2023-02-26T17:19:32;20.42;;;7.70;;
19776;SDS011;10047;42.490;26.012;2023-02-26T17:21:58;21.85;;;7.65;;
19776;SDS011;10047;42.490;26.012;2023-02-26T17:26:56;20.98;;;6.40;;
19776;SDS011;10047;42.490;26.012;2023-02-26T17:29:25;17.50;;;6.03;;
19776;SDS011;10047;42.490;26.012;2023-02-26T17:31:57;25.15;;;6.00;;
19776;SDS011;10047;42.490;26.012;2023-02-26T17:34:23;24.88;;;6.07;;
19776;SDS011;10047;42.490;26.012;2023-02-26T17:36:48;22.15;;;6.07;;
19776;SDS011;10047;42.490;26.012;2023-02-26T17:39:14;15.27;;;5.72;;
19776;SDS011;10047;42.490;26.012;2023-02-26T17:41:41;19.80;;;6.55;;
19776;SDS011;10047;42.490;26.012;2023-02-26T17:44:08;23.15;;;5.95;;
19776;SDS011;10047;42.490;26.012;2023-02-26T17:46:34;19.33;;;6.25;;
19776;SDS011;10047;42.490;26.012;2023-02-26T17:48:59;19.17;;;7.00;;
19776;SDS011;10047;42.490;26.012;2023-02-26T17:51:25;23.23;;;8.35;;
19776;SDS011;10047;42.490;26.012;2023-02-26T17:53:51;20.73;;;6.90;;
19776;SDS011;10047;42.490;26.012;2023-02-26T17:56:24;20.48;;;7.28;;
19776;SDS011;10047;42.490;26.012;2023-02-26T17:58:52;20.48;;;7.32;;
19776;SDS011;10047;42.490;26.012;2023-02-26T18:01:19;22.63;;;9.80;;
19776;SDS011;10047;42.490;26.012;2023-02-26T18:03:47;24.10;;;8.73;;
19776;SDS011;10047;42.490;26.012;2023-02-26T18:06:13;32.88;;;8.80;;
19776;SDS011;10047;42.490;26.012;2023-02-26T18:08:40;21.70;;;9.02;;
19776;SDS011;10047;42.490;26.012;2023-02-26T18:11:06;23.08;;;9.43;;
19776;SDS011;10047;42.490;26.012;2023-02-26T18:13:33;22.40;;;6.07;;
19776;SDS011;10047;42.490;26.012;2023-02-26T18:15:59;22.33;;;6.53;;
19776;SDS011;10047;42.490;26.012;2023-02-26T18:18:27;25.17;;;7.20;;
19776;SDS011;10047;42.490;26.012;2023-02-26T18:20:53;22.05;;;6.30;;